createdAt,value
2023-03-10T00:01:24.468Z,96321.84
2023-03-10T00:03:54.067Z,96314.81
2023-03-10T00:06:24.810Z,96304.97
2023-03-10T00:08:53.404Z,96304.72
2023-03-10T00:11:22.195Z,96286.09
2023-03-10T00:13:50.971Z,96282.47
2023-03-10T00:16:21.259Z,96260.19
2023-03-10T00:18:51.372Z,96260.44
2023-03-10T00:21:21.913Z,96245.22
2023-03-10T00:23:50.627Z,96248.75
2023-03-10T00:26:20.849Z,96246.19
2023-03-10T00:28:49.746Z,96240.31
2023-03-10T00:31:19.845Z,96241.94
2023-03-10T00:33:50.082Z,96237.06
2023-03-10T00:36:23.011Z,96223.72
2023-03-10T00:38:52.731Z,96223.06
2023-03-10T00:41:22.496Z,96217.09
2023-03-10T00:43:51.726Z,96224.81
2023-03-10T00:46:21.256Z,96208.50
2023-03-10T00:48:51.574Z,96206.88
2023-03-10T00:51:21.710Z,96202.41
2023-03-10T00:53:51.121Z,96196.56
2023-03-10T00:56:21.568Z,96193.88
2023-03-10T00:58:53.182Z,96190.69
2023-03-10T01:01:23.831Z,96187.41
2023-03-10T01:03:55.935Z,96197.75
2023-03-10T01:06:24.983Z,96188.38
2023-03-10T01:08:54.390Z,96180.63
2023-03-10T01:11:24.920Z,96182.25
2023-03-10T01:13:53.954Z,96181.72
2023-03-10T01:16:22.633Z,96175.47
2023-03-10T01:18:51.184Z,96177.50
2023-03-10T01:21:23.127Z,96167.59
2023-03-10T01:23:52.178Z,96166.63
2023-03-10T01:26:20.781Z,96154.13
2023-03-10T01:28:50.232Z,96171.22
2023-03-10T01:31:19.393Z,96158.34
2023-03-10T01:33:48.516Z,96155.75
2023-03-10T01:36:21.068Z,96156.81
2023-03-10T01:38:50.682Z,96159.53
2023-03-10T01:41:19.567Z,96158.72
2023-03-10T01:43:49.299Z,96143.41
2023-03-10T01:46:38.085Z,96148.69
2023-03-10T01:49:19.308Z,96142.69
2023-03-10T01:51:52.471Z,96133.22
2023-03-10T01:54:23.984Z,96141.09
2023-03-10T01:56:54.094Z,96133.47
2023-03-10T01:59:23.473Z,96130.78
2023-03-10T02:01:52.618Z,96128.31
2023-03-10T02:04:27.149Z,96125.63
2023-03-10T02:06:58.627Z,96126.16
2023-03-10T02:09:27.778Z,96114.91
2023-03-10T02:11:56.962Z,96120.19
2023-03-10T02:14:25.834Z,96121.41
2023-03-10T02:16:54.571Z,96107.69
2023-03-10T02:19:34.698Z,96115.31
2023-03-10T02:22:08.207Z,96128.03
2023-03-10T02:24:43.419Z,96117.72
2023-03-10T02:27:19.520Z,96122.09
2023-03-10T02:29:59.267Z,96121.81
2023-03-10T02:32:34.497Z,96122.88
2023-03-10T02:35:03.469Z,96108.38
2023-03-10T02:37:35.357Z,96113.53
2023-03-10T02:40:05.900Z,96100.66
2023-03-10T02:42:37.193Z,96110.97
2023-03-10T02:45:06.523Z,96119.66
2023-03-10T02:47:35.168Z,96099.28
2023-03-10T02:50:03.810Z,96114.31
2023-03-10T02:52:38.252Z,96094.38
2023-03-10T02:55:07.826Z,96104.28
2023-03-10T02:57:38.053Z,96095.16
2023-03-10T03:00:09.324Z,96091.91
2023-03-10T03:02:37.924Z,96082.78
2023-03-10T03:05:09.056Z,96078.59
2023-03-10T03:07:37.590Z,96084.00
2023-03-10T03:10:08.290Z,96081.13
2023-03-10T03:12:38.841Z,96082.06
2023-03-10T03:15:08.822Z,96085.84
2023-03-10T03:17:37.499Z,96088.69
2023-03-10T03:20:11.799Z,96093.41
2023-03-10T03:22:41.570Z,96083.91
2023-03-10T03:25:11.486Z,96084.56
2023-03-10T03:27:41.503Z,96088.19
2023-03-10T03:30:14.433Z,96079.22
2023-03-10T03:32:43.603Z,96086.81
2023-03-10T03:35:15.887Z,96074.34
2023-03-10T03:37:45.298Z,96072.47
2023-03-10T03:40:15.416Z,96077.97
2023-03-10T03:42:49.596Z,96061.84
2023-03-10T03:45:20.443Z,96063.47
2023-03-10T03:47:49.565Z,96049.34
2023-03-10T03:50:20.276Z,96058.31
2023-03-10T03:52:50.479Z,96057.50
2023-03-10T03:55:22.106Z,96056.38
2023-03-10T03:57:54.413Z,96055.00
2023-03-10T04:00:25.119Z,96036.16
2023-03-10T04:03:01.477Z,96049.03
2023-03-10T04:05:32.259Z,96037.38
2023-03-10T04:08:01.229Z,96032.22
2023-03-10T04:10:31.579Z,96045.09
2023-03-10T04:13:02.700Z,96036.03
2023-03-10T04:15:31.865Z,96043.88
2023-03-10T04:18:01.580Z,96036.41
2023-03-10T04:20:30.796Z,96033.84
2023-03-10T04:23:02.112Z,96015.25
2023-03-10T04:25:36.348Z,96031.97
2023-03-10T04:28:07.265Z,96023.53
2023-03-10T04:30:35.981Z,96020.28
2023-03-10T04:33:05.520Z,96028.13
2023-03-10T04:35:36.195Z,96037.38
2023-03-10T04:38:04.980Z,96036.00
2023-03-10T04:40:34.421Z,96040.44
2023-03-10T04:43:03.939Z,96034.63
2023-03-10T04:45:34.706Z,96024.56
2023-03-10T04:48:03.311Z,96031.34
2023-03-10T04:50:32.608Z,96036.47
2023-03-10T04:53:01.242Z,96035.28
2023-03-10T04:55:32.367Z,96030.03
2023-03-10T04:58:01.858Z,96033.28
2023-03-10T05:00:30.710Z,96028.28
2023-03-10T05:03:00.648Z,96015.66
2023-03-10T05:05:29.446Z,96010.25
2023-03-10T05:07:57.999Z,95996.69
2023-03-10T05:10:26.813Z,96000.19
2023-03-10T05:12:55.482Z,95993.19
2023-03-10T05:15:24.803Z,95981.13
2023-03-10T05:17:53.952Z,95993.56
2023-03-10T05:20:24.491Z,95991.25
2023-03-10T05:22:53.648Z,95982.16
2023-03-10T05:25:22.564Z,95982.50
2023-03-10T05:27:54.305Z,95975.50
2023-03-10T05:30:23.585Z,95975.50
2023-03-10T05:32:55.826Z,95964.50
2023-03-10T05:35:26.123Z,95958.91
2023-03-10T05:37:55.491Z,95965.44
2023-03-10T05:40:24.524Z,95959.63
2023-03-10T05:42:53.380Z,95955.53
2023-03-10T05:45:24.557Z,95957.06
2023-03-10T05:47:53.722Z,95970.72
2023-03-10T05:50:22.699Z,95976.69
2023-03-10T05:52:52.901Z,95966.25
2023-03-10T05:55:22.267Z,95987.66
2023-03-10T05:57:51.049Z,95967.91
2023-03-10T06:00:20.957Z,95964.50
2023-03-10T06:02:59.313Z,95959.00
2023-03-10T06:05:28.112Z,95951.38
2023-03-10T06:07:58.116Z,95941.88
2023-03-10T06:10:26.957Z,95941.63
2023-03-10T06:12:56.349Z,95940.81
2023-03-10T06:15:25.146Z,95940.81
2023-03-10T06:17:53.865Z,95938.97
2023-03-10T06:20:22.549Z,95936.00
2023-03-10T06:22:53.121Z,95936.09
2023-03-10T06:25:23.197Z,95933.84
2023-03-10T06:27:51.986Z,95931.41
2023-03-10T06:30:20.855Z,95926.75
2023-03-10T06:32:49.575Z,95935.69
2023-03-10T06:35:18.805Z,95908.66
2023-03-10T06:37:47.378Z,95894.94
2023-03-10T06:40:16.104Z,95889.59
2023-03-10T06:42:46.489Z,95870.63
2023-03-10T06:45:17.630Z,95854.88
2023-03-10T06:47:46.234Z,95849.06
2023-03-10T06:50:17.801Z,95867.19
2023-03-10T06:52:46.977Z,95881.78
2023-03-10T06:55:16.921Z,95890.22
2023-03-10T06:57:46.961Z,95885.75
2023-03-10T07:00:16.938Z,95888.06
2023-03-10T07:02:45.800Z,95884.00
2023-03-10T07:05:15.309Z,95883.88
2023-03-10T07:07:44.005Z,95899.16
2023-03-10T07:10:13.358Z,95894.81
2023-03-10T07:12:42.024Z,95911.91
2023-03-10T07:15:12.989Z,95912.72
2023-03-10T07:17:41.625Z,95904.88
2023-03-10T07:20:11.944Z,95903.50
2023-03-10T07:22:40.756Z,95913.53
2023-03-10T07:25:10.152Z,95906.88
2023-03-10T07:27:38.756Z,95902.28
2023-03-10T07:30:08.558Z,95896.34
2023-03-10T07:32:38.659Z,95910.72
2023-03-10T07:35:08.407Z,95915.63
2023-03-10T07:37:39.346Z,95921.56
2023-03-10T07:40:09.914Z,95920.22
2023-03-10T07:42:38.551Z,95922.81
2023-03-10T07:45:08.216Z,95924.19
2023-03-10T07:47:38.444Z,95920.66
2023-03-10T07:50:07.826Z,95911.06
2023-03-10T07:52:36.423Z,95916.91
2023-03-10T07:55:05.660Z,95911.47
2023-03-10T07:57:34.283Z,95910.28
2023-03-10T08:00:02.919Z,95919.38
2023-03-10T08:02:42.585Z,95922.91
2023-03-10T08:05:12.301Z,95932.94
2023-03-10T08:07:41.720Z,95921.84
2023-03-10T08:10:11.473Z,95931.44
2023-03-10T08:12:40.178Z,95928.28
2023-03-10T08:15:11.028Z,95934.91
2023-03-10T08:17:41.010Z,95944.56
2023-03-10T08:20:11.122Z,95951.41
2023-03-10T08:22:40.234Z,95962.47
2023-03-10T08:25:09.848Z,95959.09
2023-03-10T08:27:38.483Z,95963.34
2023-03-10T08:30:08.290Z,95963.28
2023-03-10T08:32:36.896Z,95968.09
2023-03-10T08:35:08.270Z,95981.28
2023-03-10T08:37:37.627Z,95983.84
2023-03-10T08:40:08.250Z,95983.41
2023-03-10T08:42:37.363Z,95984.31
2023-03-10T08:45:08.777Z,95986.53
2023-03-10T08:47:38.148Z,95974.25
2023-03-10T08:50:09.158Z,95992.13
2023-03-10T08:52:37.799Z,95996.66
2023-03-10T08:55:07.532Z,96011.56
2023-03-10T08:57:36.280Z,95984.00
2023-03-10T09:00:06.979Z,95994.28
2023-03-10T09:02:35.926Z,96010.91
2023-03-10T09:05:05.262Z,96004.00
2023-03-10T09:07:35.267Z,96002.13
2023-03-10T09:10:05.144Z,96005.50
2023-03-10T09:12:36.939Z,96002.31
2023-03-10T09:15:08.242Z,96009.69
2023-03-10T09:17:39.450Z,96014.13
2023-03-10T09:20:10.035Z,95996.66
2023-03-10T09:22:40.058Z,95991.38
2023-03-10T09:25:09.311Z,95991.00
2023-03-10T09:27:38.066Z,96002.56
2023-03-10T09:30:07.906Z,96001.38
2023-03-10T09:32:36.583Z,96002.84
2023-03-10T09:35:06.228Z,96006.44
2023-03-10T09:37:34.997Z,96002.22
2023-03-10T09:40:06.802Z,95997.06
2023-03-10T09:42:40.830Z,96002.66
2023-03-10T09:45:24.460Z,96006.47
2023-03-10T09:48:12.027Z,95999.31
2023-03-10T09:50:45.226Z,95982.66
2023-03-10T09:53:31.906Z,96005.44
2023-03-10T09:56:01.926Z,96012.91
2023-03-10T09:58:34.767Z,96010.34
2023-03-10T10:01:06.209Z,95999.63
2023-03-10T10:03:52.198Z,96011.94
2023-03-10T10:06:28.128Z,95987.41
2023-03-10T10:09:05.073Z,96008.97
2023-03-10T10:11:36.804Z,96001.81
2023-03-10T10:14:33.773Z,96000.84
2023-03-10T10:17:10.921Z,95996.81
2023-03-10T10:19:41.225Z,96002.53
2023-03-10T10:22:18.796Z,95984.91
2023-03-10T10:25:08.306Z,95996.25
2023-03-10T10:27:40.242Z,95995.88
2023-03-10T10:30:34.905Z,95991.91
2023-03-10T10:33:06.665Z,95989.50
2023-03-10T10:35:38.309Z,96008.72
2023-03-10T10:38:11.885Z,95981.84
2023-03-10T10:40:49.815Z,95979.94
2023-03-10T10:43:22.237Z,95995.13
2023-03-10T10:45:55.682Z,95974.53
2023-03-10T10:48:39.560Z,95993.78
2023-03-10T10:51:22.240Z,95994.84
2023-03-10T10:53:50.722Z,95987.66
2023-03-10T10:56:21.011Z,95990.13
2023-03-10T10:59:05.428Z,95990.56
2023-03-10T11:01:51.092Z,95992.72
2023-03-10T11:04:20.298Z,95983.38
2023-03-10T11:06:49.402Z,96006.56
2023-03-10T11:09:20.814Z,95992.97
2023-03-10T11:12:04.947Z,95996.56
2023-03-10T11:14:45.517Z,96005.97
2023-03-10T11:17:20.169Z,95994.16
2023-03-10T11:20:01.601Z,96003.38
2023-03-10T11:22:39.987Z,95997.69
2023-03-10T11:25:23.463Z,95999.84
2023-03-10T11:28:06.065Z,96014.53
2023-03-10T11:30:38.697Z,96029.41
2023-03-10T11:33:18.036Z,96034.72
2023-03-10T11:35:51.533Z,96013.16
2023-03-10T11:38:34.734Z,96014.78
2023-03-10T11:41:09.724Z,96026.03
2023-03-10T11:43:48.819Z,96021.84
2023-03-10T11:46:25.300Z,96012.19
2023-03-10T11:49:08.334Z,96009.91
2023-03-10T11:51:40.938Z,96020.47
2023-03-10T11:54:16.517Z,96016.84
2023-03-10T11:56:45.785Z,96023.75
2023-03-10T11:59:18.720Z,96017.25
2023-03-10T12:01:55.147Z,96005.69
2023-03-10T12:04:28.541Z,96016.78
2023-03-10T12:07:04.638Z,96013.91
2023-03-10T12:09:42.076Z,96026.47
2023-03-10T12:12:17.745Z,95998.69
2023-03-10T12:14:48.037Z,96011.22
2023-03-10T12:17:19.137Z,95999.69
2023-03-10T12:20:27.415Z,96004.56
2023-03-10T12:22:57.587Z,96003.38
2023-03-10T12:25:48.539Z,95999.31
2023-03-10T12:28:27.464Z,96012.50
2023-03-10T12:30:59.347Z,96034.47
2023-03-10T12:33:53.031Z,96017.81
2023-03-10T12:36:35.962Z,95998.69
2023-03-10T12:39:32.703Z,96005.88
2023-03-10T12:42:02.178Z,95998.56
2023-03-10T12:44:49.462Z,96000.06
2023-03-10T12:47:31.855Z,96021.91
2023-03-10T12:50:13.906Z,96015.38
2023-03-10T12:52:51.803Z,96036.00
2023-03-10T12:55:24.392Z,96017.97
2023-03-10T12:58:04.978Z,96010.22
2023-03-10T13:00:51.042Z,96012.00
2023-03-10T13:03:31.886Z,95994.78
2023-03-10T13:06:07.218Z,96020.44
2023-03-10T13:08:46.846Z,96012.69
2023-03-10T13:11:35.917Z,96006.19
2023-03-10T13:14:12.020Z,96019.47
2023-03-10T13:16:40.380Z,95985.28
2023-03-10T13:19:20.447Z,95996.13
2023-03-10T13:21:51.681Z,96002.34
2023-03-10T13:24:26.414Z,96021.59
2023-03-10T13:27:12.196Z,96033.22
2023-03-10T13:29:42.835Z,96009.06
2023-03-10T13:32:20.212Z,96015.41
2023-03-10T13:34:48.575Z,96028.53
2023-03-10T13:37:18.501Z,96030.44
2023-03-10T13:39:46.870Z,96034.16
2023-03-10T13:42:40.938Z,96035.03
2023-03-10T13:45:22.981Z,96043.78
2023-03-10T13:47:52.566Z,96032.88
2023-03-10T13:50:20.998Z,96027.78
2023-03-10T13:52:59.813Z,96036.50
2023-03-10T13:55:29.810Z,96036.75
2023-03-10T13:57:59.425Z,96038.38
2023-03-10T14:00:28.627Z,96027.84
2023-03-10T14:02:57.303Z,96030.16
2023-03-10T14:05:46.820Z,96020.31
2023-03-10T14:08:27.929Z,96024.59
2023-03-10T14:11:32.898Z,96031.28
2023-03-10T14:14:02.343Z,96023.44
2023-03-10T14:16:54.681Z,96035.81
2023-03-10T14:19:53.225Z,96041.13
2023-03-10T14:22:30.822Z,96066.06
2023-03-10T14:25:03.127Z,96076.75
2023-03-10T14:27:35.161Z,96083.94
2023-03-10T14:30:16.774Z,96079.81
2023-03-10T14:32:45.088Z,96092.00
2023-03-10T14:35:15.273Z,96108.88
2023-03-10T14:37:43.495Z,96111.75
2023-03-10T14:40:14.125Z,96101.16
2023-03-10T14:42:43.069Z,96118.84
2023-03-10T14:45:28.745Z,96128.09
2023-03-10T14:47:59.660Z,96116.06
2023-03-10T14:50:30.648Z,96140.38
2023-03-10T14:52:59.081Z,96131.59
2023-03-10T14:55:29.830Z,96142.09
2023-03-10T14:58:02.088Z,96147.25
2023-03-10T15:00:30.773Z,96140.41
2023-03-10T15:02:59.482Z,96125.88
2023-03-10T15:05:45.348Z,96151.50
2023-03-10T15:08:16.683Z,96156.78
2023-03-10T15:10:50.858Z,96150.91
2023-03-10T15:13:21.654Z,96149.50
2023-03-10T15:15:50.869Z,96155.25
2023-03-10T15:18:22.307Z,96178.00
2023-03-10T15:20:51.485Z,96201.84
2023-03-10T15:23:20.363Z,96201.94
2023-03-10T15:25:50.103Z,96191.66
2023-03-10T15:28:18.716Z,96217.28
2023-03-10T15:30:47.545Z,96218.31
2023-03-10T15:33:16.638Z,96228.84
2023-03-10T15:35:45.285Z,96225.69
2023-03-10T15:38:15.891Z,96247.19
2023-03-10T15:40:44.376Z,96249.72
2023-03-10T15:43:14.451Z,96297.84
2023-03-10T15:45:46.627Z,96258.78
2023-03-10T15:48:14.929Z,96251.28
2023-03-10T15:50:44.722Z,96271.09
2023-03-10T15:53:12.994Z,96257.19
2023-03-10T15:55:42.744Z,96242.59
2023-03-10T15:58:13.168Z,96264.69
2023-03-10T16:00:43.692Z,96236.69
2023-03-10T16:03:12.289Z,96242.19
2023-03-10T16:05:48.903Z,96220.25
2023-03-10T16:08:19.058Z,96251.44
2023-03-10T16:10:53.296Z,96243.63
2023-03-10T16:13:23.890Z,96240.72
2023-03-10T16:15:53.226Z,96252.91
2023-03-10T16:18:21.676Z,96245.28
2023-03-10T16:20:58.480Z,96256.88
2023-03-10T16:23:27.664Z,96269.03
2023-03-10T16:26:08.409Z,96259.31
2023-03-10T16:28:40.408Z,96258.72
2023-03-10T16:31:09.483Z,96270.28
2023-03-10T16:33:38.033Z,96272.84
2023-03-10T16:36:10.389Z,96291.03
2023-03-10T16:38:38.688Z,96322.56
2023-03-10T16:41:07.727Z,96314.22
2023-03-10T16:43:37.451Z,96324.03
2023-03-10T16:46:10.253Z,96340.72
2023-03-10T16:48:42.542Z,96345.13
2023-03-10T16:51:28.521Z,96370.63
2023-03-10T16:53:59.109Z,96336.13
2023-03-10T16:56:29.237Z,96405.97
2023-03-10T16:58:59.497Z,96333.97
2023-03-10T17:01:28.017Z,96371.34
2023-03-10T17:03:57.384Z,96344.59
2023-03-10T17:06:28.441Z,96345.06
2023-03-10T17:08:57.849Z,96358.44
2023-03-10T17:11:28.669Z,96353.09
2023-03-10T17:14:01.698Z,96346.53
2023-03-10T17:16:33.155Z,96351.88
2023-03-10T17:19:04.486Z,96354.03
2023-03-10T17:21:38.245Z,96338.78
2023-03-10T17:24:09.015Z,96361.03
2023-03-10T17:26:37.929Z,96374.06
2023-03-10T17:29:08.091Z,96371.69
2023-03-10T17:31:36.823Z,96370.25
2023-03-10T17:34:07.978Z,96356.09
2023-03-10T17:36:36.550Z,96353.75
2023-03-10T17:39:06.160Z,96348.22
2023-03-10T17:41:36.563Z,96336.91
2023-03-10T17:44:05.484Z,96392.69
2023-03-10T17:46:35.381Z,96354.78
2023-03-10T17:49:04.033Z,96363.38
2023-03-10T17:51:32.642Z,96349.84
2023-03-10T17:54:02.507Z,96373.63
2023-03-10T17:56:31.456Z,96372.19
2023-03-10T17:59:00.076Z,96377.84
2023-03-10T18:01:31.331Z,96388.50
2023-03-10T18:04:02.140Z,96444.41
2023-03-10T18:06:34.319Z,96452.22
2023-03-10T18:09:06.286Z,96426.34
2023-03-10T18:11:35.715Z,96453.53
2023-03-10T18:14:04.342Z,96435.78
2023-03-10T18:16:35.673Z,96426.53
2023-03-10T18:19:05.542Z,96446.66
2023-03-10T18:21:33.966Z,96447.47
2023-03-10T18:24:03.602Z,96449.97
2023-03-10T18:26:32.308Z,96430.94
2023-03-10T18:29:01.362Z,96465.91
2023-03-10T18:31:32.175Z,96438.84
2023-03-10T18:34:01.337Z,96437.78
2023-03-10T18:36:32.922Z,96434.47
2023-03-10T18:39:03.470Z,96501.09
2023-03-10T18:41:32.640Z,96492.38
2023-03-10T18:44:01.550Z,96445.78
2023-03-10T18:46:30.606Z,96483.69
2023-03-10T18:48:59.018Z,96478.13
2023-03-10T18:51:30.204Z,96449.91
2023-03-10T18:53:58.598Z,96458.50
2023-03-10T18:56:29.091Z,96450.19
2023-03-10T18:58:57.590Z,96460.91
2023-03-10T19:01:26.817Z,96497.81
2023-03-10T19:03:55.173Z,96506.03
2023-03-10T19:06:23.389Z,96506.88
2023-03-10T19:08:53.772Z,96533.44
2023-03-10T19:11:24.344Z,96559.66
2023-03-10T19:13:53.139Z,96517.09
2023-03-10T19:16:22.388Z,96484.72
2023-03-10T19:18:50.886Z,96506.13
2023-03-10T19:21:20.408Z,96515.25
2023-03-10T19:23:50.106Z,96481.94
2023-03-10T19:26:20.170Z,96519.28
2023-03-10T19:28:48.397Z,96530.44
2023-03-10T19:31:17.618Z,96558.47
2023-03-10T19:33:46.812Z,96536.47
2023-03-10T19:36:16.442Z,96602.75
2023-03-10T19:38:47.145Z,96539.72
2023-03-10T19:41:20.090Z,96543.91
2023-03-10T19:43:50.536Z,96538.53
2023-03-10T19:46:20.189Z,96552.13
2023-03-10T19:48:48.525Z,96549.22
2023-03-10T19:51:22.503Z,96567.09
2023-03-10T19:53:52.165Z,96573.44
2023-03-10T19:56:23.639Z,96583.13
2023-03-10T19:58:52.101Z,96582.91
2023-03-10T20:01:24.291Z,96572.34
2023-03-10T20:03:54.879Z,96630.19
2023-03-10T20:06:24.261Z,96632.41
2023-03-10T20:08:53.623Z,96611.59
2023-03-10T20:11:23.525Z,96645.03
2023-03-10T20:13:54.096Z,96672.75
2023-03-10T20:16:23.937Z,96666.16
2023-03-10T20:18:52.538Z,96712.59
2023-03-10T20:21:20.892Z,96699.34
2023-03-10T20:23:49.282Z,96696.44
2023-03-10T20:26:18.700Z,96707.75
2023-03-10T20:28:50.804Z,96735.78
2023-03-10T20:31:22.784Z,96715.75
2023-03-10T20:33:52.117Z,96762.72
2023-03-10T20:36:20.492Z,96746.81
2023-03-10T20:38:48.974Z,96784.72
2023-03-10T20:41:19.455Z,96765.72
2023-03-10T20:43:49.470Z,96770.09
2023-03-10T20:46:19.144Z,96746.44
2023-03-10T20:48:49.647Z,96785.00
2023-03-10T20:51:19.344Z,96786.97
2023-03-10T20:53:48.236Z,96784.16
2023-03-10T20:56:16.564Z,96812.25
2023-03-10T20:58:45.195Z,96814.16
2023-03-10T21:01:20.438Z,96821.13
2023-03-10T21:03:48.992Z,96827.72
2023-03-10T21:06:17.823Z,96853.66
2023-03-10T21:08:47.554Z,96856.44
2023-03-10T21:11:16.482Z,96905.38
2023-03-10T21:13:44.826Z,96869.81
2023-03-10T21:16:13.355Z,96892.84
2023-03-10T21:18:42.997Z,96901.63
2023-03-10T21:21:13.573Z,96913.63
2023-03-10T21:23:44.701Z,96925.78
2023-03-10T21:26:15.682Z,96904.69
2023-03-10T21:28:44.123Z,96938.47
2023-03-10T21:31:13.046Z,96972.69
2023-03-10T21:33:42.945Z,96936.00
2023-03-10T21:36:15.274Z,96940.41
2023-03-10T21:38:43.845Z,96957.09
2023-03-10T21:41:15.672Z,96991.31
2023-03-10T21:43:44.105Z,96977.78
2023-03-10T21:46:12.585Z,97010.94
2023-03-10T21:48:42.871Z,96972.69
2023-03-10T21:51:14.311Z,96980.16
2023-03-10T21:53:42.855Z,97016.13
2023-03-10T21:56:11.496Z,97039.44
2023-03-10T21:58:40.044Z,97007.09
2023-03-10T22:01:09.082Z,97048.00
2023-03-10T22:03:37.434Z,96998.97
2023-03-10T22:06:07.391Z,97025.25
2023-03-10T22:08:38.477Z,97036.41
2023-03-10T22:11:09.623Z,97053.34
2023-03-10T22:13:39.693Z,97027.13
2023-03-10T22:16:10.675Z,97026.19
2023-03-10T22:18:39.155Z,97024.13
2023-03-10T22:21:08.897Z,97031.28
2023-03-10T22:23:37.422Z,97030.34
2023-03-10T22:26:05.962Z,97048.81
2023-03-10T22:28:34.494Z,97049.88
2023-03-10T22:31:06.336Z,97063.84
2023-03-10T22:33:35.065Z,97040.22
2023-03-10T22:36:05.034Z,97059.88
2023-03-10T22:38:35.047Z,97095.59
2023-03-10T22:41:03.392Z,97083.09
2023-03-10T22:43:31.684Z,97068.88
2023-03-10T22:45:59.941Z,97072.88
2023-03-10T22:48:28.231Z,97088.19
2023-03-10T22:50:56.551Z,97096.84
2023-03-10T22:53:24.939Z,97095.63
2023-03-10T22:55:54.488Z,97110.22
2023-03-10T22:58:23.037Z,97120.56
2023-03-10T23:00:51.285Z,97125.53
2023-03-10T23:03:19.599Z,97117.72
2023-03-10T23:05:47.922Z,97120.31
2023-03-10T23:08:16.979Z,97130.78
2023-03-10T23:10:45.442Z,97130.63
2023-03-10T23:13:17.626Z,97111.41
2023-03-10T23:15:46.479Z,97134.28
2023-03-10T23:18:15.103Z,97128.97
2023-03-10T23:20:47.893Z,97139.44
2023-03-10T23:23:18.147Z,97134.72
2023-03-10T23:25:50.999Z,97126.16
2023-03-10T23:28:22.547Z,97141.25
2023-03-10T23:30:53.135Z,97146.00
2023-03-10T23:33:24.547Z,97127.56
2023-03-10T23:35:54.428Z,97132.84
2023-03-10T23:38:25.521Z,97138.47
2023-03-10T23:40:55.343Z,97124.22
2023-03-10T23:43:25.252Z,97113.34
2023-03-10T23:45:53.943Z,97125.25
2023-03-10T23:48:24.575Z,97139.66
2023-03-10T23:50:52.982Z,97133.06
2023-03-10T23:53:21.850Z,97131.50
2023-03-10T23:55:50.714Z,97146.13
2023-03-10T23:58:21.183Z,97158.00
